createdAt,value
2022-09-20T00:00:02.336Z,73.87
2022-09-20T00:01:04.751Z,73.77
2022-09-20T00:02:02.137Z,73.73
2022-09-20T00:03:02.641Z,73.82
2022-09-20T00:04:02.548Z,73.91
2022-09-20T00:05:02.365Z,74.14
2022-09-20T00:06:02.379Z,74.11
2022-09-20T00:07:02.379Z,74.19
2022-09-20T00:08:02.234Z,74.26
2022-09-20T00:09:04.533Z,74.32
2022-09-20T00:10:02.299Z,74.36
2022-09-20T00:11:02.317Z,74.28
2022-09-20T00:12:02.418Z,74.22
2022-09-20T00:13:02.748Z,74.18
2022-09-20T00:14:01.885Z,74.38
2022-09-20T00:15:02.069Z,74.12
2022-09-20T00:16:02.171Z,74.31
2022-09-20T00:17:02.163Z,74.40
2022-09-20T00:18:02.803Z,74.26
2022-09-20T00:19:02.685Z,74.57
2022-09-20T00:20:02.140Z,74.11
2022-09-20T00:21:02.301Z,73.93
2022-09-20T00:22:02.011Z,73.99
2022-09-20T00:23:03.027Z,73.80
2022-09-20T00:24:01.867Z,73.83
2022-09-20T00:25:02.245Z,73.79
2022-09-20T00:26:02.037Z,73.92
2022-09-20T00:27:02.383Z,74.04
2022-09-20T00:28:02.556Z,74.08
2022-09-20T00:29:02.028Z,74.02
2022-09-20T00:30:01.795Z,74.08
2022-09-20T00:31:02.340Z,74.21
2022-09-20T00:32:01.704Z,74.20
2022-09-20T00:33:01.848Z,74.21
2022-09-20T00:34:01.995Z,74.16
2022-09-20T00:35:02.445Z,74.09
2022-09-20T00:36:02.125Z,74.43
2022-09-20T00:37:03.030Z,74.53
2022-09-20T00:38:01.764Z,74.32
2022-09-20T00:39:03.505Z,74.27
2022-09-20T00:40:02.596Z,74.16
2022-09-20T00:41:01.845Z,74.44
2022-09-20T00:42:01.694Z,74.59
2022-09-20T00:43:02.322Z,74.45
2022-09-20T00:44:01.810Z,74.50
2022-09-20T00:45:01.885Z,74.66
2022-09-20T00:46:03.362Z,74.63
2022-09-20T00:47:02.277Z,74.64
2022-09-20T00:48:02.246Z,74.80
2022-09-20T00:49:01.952Z,74.80
2022-09-20T00:50:02.085Z,74.89
2022-09-20T00:51:03.158Z,75.02
2022-09-20T00:52:02.414Z,75.38
2022-09-20T00:53:02.024Z,75.19
2022-09-20T00:54:01.867Z,75.27
2022-09-20T00:55:02.794Z,75.25
2022-09-20T00:56:01.856Z,75.35
2022-09-20T00:57:03.020Z,75.26
2022-09-20T00:58:01.174Z,75.38
2022-09-20T00:59:04.160Z,75.26
2022-09-20T01:00:01.710Z,75.23
2022-09-20T01:01:22.830Z,75.21
2022-09-20T01:02:01.888Z,75.22
2022-09-20T01:03:01.698Z,75.12
2022-09-20T01:05:22.739Z,74.83
2022-09-20T01:06:10.315Z,74.84
2022-09-20T01:07:11.697Z,75.18
2022-09-20T01:08:11.166Z,75.12
2022-09-20T01:09:11.928Z,75.07
2022-09-20T01:10:11.149Z,75.13
2022-09-20T01:11:13.501Z,75.18
2022-09-20T01:12:11.394Z,75.25
2022-09-20T01:13:10.666Z,75.11
2022-09-20T01:14:10.438Z,75.06
2022-09-20T01:15:10.806Z,75.13
2022-09-20T01:16:10.745Z,75.11
2022-09-20T01:17:10.921Z,75.29
2022-09-20T01:18:11.162Z,75.14
2022-09-20T01:19:11.028Z,75.07
2022-09-20T01:20:10.534Z,75.02
2022-09-20T01:21:12.107Z,74.93
2022-09-20T01:22:11.656Z,74.85
2022-09-20T01:23:11.089Z,74.83
2022-09-20T01:24:11.164Z,74.83
2022-09-20T01:25:11.531Z,74.87
2022-09-20T01:26:10.526Z,74.87
2022-09-20T01:27:10.399Z,75.07
2022-09-20T01:28:10.280Z,75.14
2022-09-20T01:29:10.445Z,75.19
2022-09-20T01:30:12.138Z,75.32
2022-09-20T01:31:10.862Z,75.36
2022-09-20T01:32:11.251Z,75.34
2022-09-20T01:33:10.430Z,75.39
2022-09-20T01:34:10.238Z,75.47
2022-09-20T01:35:10.497Z,75.55
2022-09-20T01:36:10.214Z,75.68
2022-09-20T01:37:12.357Z,75.62
2022-09-20T01:38:10.462Z,75.80
2022-09-20T01:39:11.675Z,75.80
2022-09-20T01:40:10.574Z,76.08
2022-09-20T01:41:10.398Z,75.93
2022-09-20T01:42:10.047Z,76.08
2022-09-20T01:43:10.342Z,76.07
2022-09-20T01:44:10.604Z,75.85
2022-09-20T01:45:10.321Z,75.81
2022-09-20T01:46:10.455Z,76.01
2022-09-20T01:47:11.903Z,76.06
2022-09-20T01:48:11.279Z,75.99
2022-09-20T01:49:10.374Z,75.88
2022-09-20T01:50:10.316Z,75.98
2022-09-20T01:51:10.517Z,76.15
2022-09-20T01:52:09.892Z,76.11
2022-09-20T01:53:10.027Z,76.56
2022-09-20T01:54:11.134Z,76.81
2022-09-20T01:55:10.571Z,76.47
2022-09-20T01:56:11.765Z,77.13
2022-09-20T01:57:10.306Z,76.79
2022-09-20T01:58:10.390Z,76.82
2022-09-20T01:59:23.837Z,76.99
2022-09-20T02:00:11.496Z,76.98
2022-09-20T02:01:10.179Z,77.20
2022-09-20T02:02:11.104Z,77.18
2022-09-20T02:03:10.257Z,76.97
2022-09-20T02:04:10.443Z,76.72
2022-09-20T02:05:11.138Z,77.25
2022-09-20T02:06:10.412Z,77.98
2022-09-20T02:07:10.698Z,78.34
2022-09-20T02:08:10.858Z,77.95
2022-09-20T02:09:10.405Z,78.20
2022-09-20T02:10:09.993Z,78.76
2022-09-20T02:11:10.045Z,79.12
2022-09-20T02:12:10.003Z,79.25
2022-09-20T02:13:11.098Z,79.25
2022-09-20T02:14:10.423Z,79.06
2022-09-20T02:15:10.434Z,78.66
2022-09-20T02:16:09.942Z,78.65
2022-09-20T02:17:09.992Z,78.38
2022-09-20T02:18:10.213Z,78.43
2022-09-20T02:19:10.053Z,78.49
2022-09-20T02:20:10.423Z,78.58
2022-09-20T02:21:10.197Z,79.24
2022-09-20T02:22:10.159Z,78.96
2022-09-20T02:23:11.235Z,78.91
2022-09-20T02:24:09.946Z,78.38
2022-09-20T02:25:11.126Z,78.65
2022-09-20T02:26:10.519Z,79.12
2022-09-20T02:27:10.141Z,78.40
2022-09-20T02:28:09.507Z,78.18
2022-09-20T02:29:11.143Z,78.86
2022-09-20T02:30:09.690Z,78.27
2022-09-20T02:31:11.267Z,77.92
2022-09-20T02:32:10.131Z,78.91
2022-09-20T02:33:10.117Z,79.20
2022-09-20T02:34:10.480Z,78.06
2022-09-20T02:35:10.296Z,77.64
2022-09-20T02:36:09.413Z,78.64
2022-09-20T02:37:09.557Z,79.03
2022-09-20T02:38:09.432Z,77.84
2022-09-20T02:39:13.441Z,77.89
2022-09-20T02:40:09.269Z,77.77
2022-09-20T02:41:09.109Z,77.72
2022-09-20T02:42:09.679Z,77.88
2022-09-20T02:43:09.505Z,78.23
2022-09-20T02:44:09.170Z,78.97
2022-09-20T02:45:10.479Z,79.13
2022-09-20T02:46:09.749Z,78.89
2022-09-20T02:47:09.277Z,79.82
2022-09-20T02:48:09.626Z,79.56
2022-09-20T02:49:11.261Z,79.00
2022-09-20T02:50:09.604Z,79.47
2022-09-20T02:51:09.642Z,78.81
2022-09-20T02:52:09.700Z,79.19
2022-09-20T02:53:11.703Z,80.20
2022-09-20T02:54:09.450Z,80.57
2022-09-20T02:55:09.208Z,79.42
2022-09-20T02:56:09.135Z,79.84
2022-09-20T02:57:10.252Z,80.33
2022-09-20T02:58:09.516Z,79.55
2022-09-20T02:59:09.056Z,79.89
2022-09-20T03:00:08.875Z,79.55
2022-09-20T03:01:08.961Z,79.78
2022-09-20T03:02:09.177Z,79.14
2022-09-20T03:03:30.368Z,78.83
2022-09-20T03:04:09.763Z,78.70
2022-09-20T03:05:09.194Z,78.69
2022-09-20T03:06:09.342Z,79.40
2022-09-20T03:07:09.353Z,80.03
2022-09-20T03:08:09.099Z,80.35
2022-09-20T03:09:11.286Z,80.66
2022-09-20T03:10:09.050Z,80.57
2022-09-20T03:11:08.940Z,80.97
2022-09-20T03:12:09.991Z,79.60
2022-09-20T03:13:08.965Z,79.27
2022-09-20T03:14:09.064Z,79.29
2022-09-20T03:15:08.889Z,78.93
2022-09-20T03:16:08.929Z,78.73
2022-09-20T03:17:30.306Z,78.37
2022-09-20T03:18:08.854Z,78.29
2022-09-20T03:19:08.907Z,78.06
2022-09-20T03:20:09.058Z,77.96
2022-09-20T03:21:10.166Z,77.74
2022-09-20T03:22:08.983Z,77.62
2022-09-20T03:23:10.259Z,77.49
2022-09-20T03:24:09.425Z,77.73
2022-09-20T03:25:09.107Z,77.50
2022-09-20T03:26:09.628Z,77.76
2022-09-20T03:27:30.116Z,77.65
2022-09-20T03:28:09.236Z,77.67
2022-09-20T03:29:09.466Z,77.68
2022-09-20T03:30:09.244Z,77.66
2022-09-20T03:31:08.865Z,77.65
2022-09-20T03:32:09.098Z,77.62
2022-09-20T03:33:09.792Z,77.64
2022-09-20T03:34:08.424Z,77.54
2022-09-20T03:35:08.457Z,77.64
2022-09-20T03:36:10.494Z,77.72
2022-09-20T03:37:11.785Z,77.66
2022-09-20T03:38:10.814Z,77.85
2022-09-20T03:39:08.800Z,78.28
2022-09-20T03:40:09.127Z,77.76
2022-09-20T03:41:10.330Z,77.71
2022-09-20T03:42:09.830Z,77.37
2022-09-20T03:43:09.996Z,77.58
2022-09-20T03:44:10.267Z,77.55
2022-09-20T03:45:08.739Z,77.44
2022-09-20T03:46:08.446Z,77.05
2022-09-20T03:47:08.328Z,77.20
2022-09-20T03:48:08.933Z,77.09
2022-09-20T03:49:08.746Z,77.22
2022-09-20T03:50:08.978Z,77.02
2022-09-20T03:51:08.241Z,77.10
2022-09-20T03:52:08.823Z,77.29
2022-09-20T03:53:12.081Z,77.16
2022-09-20T03:54:09.081Z,77.25
2022-09-20T03:55:08.468Z,77.18
2022-09-20T03:56:08.601Z,77.11
2022-09-20T03:57:08.498Z,77.44
2022-09-20T03:58:09.185Z,77.36
2022-09-20T03:59:09.410Z,77.37
2022-09-20T04:00:09.416Z,77.40
2022-09-20T04:01:09.542Z,77.47
2022-09-20T04:02:08.743Z,77.40
2022-09-20T04:03:08.657Z,77.55
2022-09-20T04:04:08.453Z,77.48
2022-09-20T04:05:08.180Z,77.55
2022-09-20T04:06:08.383Z,77.54
2022-09-20T04:07:08.426Z,77.62
2022-09-20T04:08:08.607Z,77.48
2022-09-20T04:09:29.186Z,77.54
2022-09-20T04:10:08.646Z,77.38
2022-09-20T04:11:08.855Z,77.53
2022-09-20T04:12:08.445Z,77.54
2022-09-20T04:13:10.765Z,77.62
2022-09-20T04:14:11.407Z,77.56
2022-09-20T04:15:08.510Z,77.60
2022-09-20T04:16:08.082Z,77.69
2022-09-20T04:17:08.213Z,78.13
2022-09-20T04:18:08.161Z,78.40
2022-09-20T04:19:08.228Z,78.33
2022-09-20T04:20:08.405Z,78.07
2022-09-20T04:21:08.314Z,78.13
2022-09-20T04:22:08.634Z,77.86
2022-09-20T04:23:08.672Z,77.89
2022-09-20T04:24:08.327Z,78.06
2022-09-20T04:25:08.623Z,77.92
2022-09-20T04:26:08.591Z,77.64
2022-09-20T04:27:08.064Z,77.60
2022-09-20T04:28:09.274Z,77.83
2022-09-20T04:29:08.067Z,78.10
2022-09-20T04:30:08.340Z,78.05
2022-09-20T04:31:08.097Z,77.84
2022-09-20T04:32:09.214Z,77.84
2022-09-20T04:33:07.988Z,78.48
2022-09-20T04:34:10.880Z,77.78
2022-09-20T04:35:08.322Z,77.64
2022-09-20T04:36:07.985Z,77.65
2022-09-20T04:37:08.843Z,77.53
2022-09-20T04:38:09.185Z,77.43
2022-09-20T04:39:07.905Z,77.27
2022-09-20T04:40:07.733Z,77.00
2022-09-20T04:41:07.548Z,77.06
2022-09-20T04:42:07.910Z,76.98
2022-09-20T04:43:08.551Z,76.60
2022-09-20T04:44:10.067Z,76.24
2022-09-20T04:45:07.578Z,76.62
2022-09-20T04:46:08.666Z,76.56
2022-09-20T04:47:07.845Z,76.41
2022-09-20T04:48:09.936Z,76.21
2022-09-20T04:49:07.650Z,76.14
2022-09-20T04:50:08.658Z,76.18
2022-09-20T04:51:08.009Z,76.42
2022-09-20T04:52:07.598Z,76.06
2022-09-20T04:53:08.022Z,75.99
2022-09-20T04:54:08.429Z,76.30
2022-09-20T04:55:07.196Z,76.07
2022-09-20T04:56:07.605Z,76.08
2022-09-20T04:57:07.646Z,76.06
2022-09-20T04:58:07.706Z,76.22
2022-09-20T04:59:07.732Z,76.23
2022-09-20T05:00:07.350Z,76.00
2022-09-20T05:01:07.438Z,76.24
2022-09-20T05:02:15.784Z,76.54
2022-09-20T05:03:07.554Z,76.65
2022-09-20T05:04:07.282Z,76.54
2022-09-20T05:05:07.469Z,76.43
2022-09-20T05:06:07.307Z,76.57
2022-09-20T05:07:07.192Z,76.20
2022-09-20T05:08:08.639Z,75.88
2022-09-20T05:09:07.766Z,74.94
2022-09-20T05:10:07.714Z,75.21
2022-09-20T05:11:09.027Z,75.61
2022-09-20T05:12:07.386Z,75.65
2022-09-20T05:13:07.260Z,75.90
2022-09-20T05:14:07.222Z,75.43
2022-09-20T05:15:07.785Z,75.72
2022-09-20T05:16:08.649Z,74.42
2022-09-20T05:17:07.449Z,74.61
2022-09-20T05:18:07.366Z,74.41
2022-09-20T05:19:07.418Z,74.12
2022-09-20T05:20:08.209Z,74.36
2022-09-20T05:21:07.125Z,73.77
2022-09-20T05:22:09.434Z,73.79
2022-09-20T05:23:07.523Z,73.56
2022-09-20T05:24:09.471Z,73.58
2022-09-20T05:25:07.215Z,73.78
2022-09-20T05:26:12.644Z,73.41
2022-09-20T05:27:07.560Z,73.55
2022-09-20T05:28:07.238Z,73.52
2022-09-20T05:29:07.257Z,73.43
2022-09-20T05:30:07.338Z,73.42
2022-09-20T05:31:07.182Z,73.08
2022-09-20T05:32:08.498Z,73.00
2022-09-20T05:33:07.096Z,72.99
2022-09-20T05:34:07.111Z,72.89
2022-09-20T05:35:06.721Z,73.20
2022-09-20T05:36:07.444Z,73.07
2022-09-20T05:37:06.860Z,72.67
2022-09-20T05:38:08.416Z,72.53
2022-09-20T05:39:07.915Z,72.27
2022-09-20T05:40:07.107Z,72.65
2022-09-20T05:41:07.054Z,72.78
2022-09-20T05:42:07.106Z,73.02
2022-09-20T05:43:06.902Z,72.83
2022-09-20T05:44:08.062Z,72.62
2022-09-20T05:45:06.677Z,73.01
2022-09-20T05:46:06.973Z,73.29
2022-09-20T05:47:07.677Z,72.87
2022-09-20T05:48:07.004Z,72.88
2022-09-20T05:49:06.829Z,73.18
2022-09-20T05:50:07.001Z,73.40
2022-09-20T05:51:06.947Z,73.19
2022-09-20T05:52:06.559Z,73.55
2022-09-20T05:53:07.184Z,73.93
2022-09-20T05:54:07.082Z,73.82
2022-09-20T05:55:06.691Z,73.90
2022-09-20T05:56:07.904Z,74.11
2022-09-20T05:57:06.824Z,74.88
2022-09-20T05:58:08.677Z,75.13
2022-09-20T05:59:08.795Z,74.53
2022-09-20T06:00:06.931Z,74.75
2022-09-20T06:01:06.706Z,74.57
2022-09-20T06:02:06.777Z,75.65
2022-09-20T06:03:06.503Z,74.99
2022-09-20T06:04:06.646Z,74.49
2022-09-20T06:05:06.910Z,75.15
2022-09-20T06:06:06.468Z,75.37
2022-09-20T06:07:06.526Z,75.55
2022-09-20T06:08:06.630Z,75.01
2022-09-20T06:09:06.625Z,75.03
2022-09-20T06:10:06.627Z,75.52
2022-09-20T06:11:06.242Z,75.24
2022-09-20T06:12:06.460Z,75.29
2022-09-20T06:13:06.924Z,74.88
2022-09-20T06:14:06.327Z,75.20
2022-09-20T06:15:06.850Z,75.23
2022-09-20T06:16:06.141Z,75.41
2022-09-20T06:17:06.679Z,74.97
2022-09-20T06:18:06.735Z,74.84
2022-09-20T06:19:07.050Z,75.56
2022-09-20T06:20:06.621Z,75.14
2022-09-20T06:21:07.719Z,74.85
2022-09-20T06:22:06.105Z,75.07
2022-09-20T06:23:07.401Z,74.89
2022-09-20T06:24:06.220Z,74.80
2022-09-20T06:25:06.892Z,74.42
2022-09-20T06:26:06.616Z,74.62
2022-09-20T06:27:06.317Z,74.43
2022-09-20T06:28:06.160Z,74.73
2022-09-20T06:29:07.231Z,74.57
2022-09-20T06:30:06.368Z,74.64
2022-09-20T06:31:06.519Z,74.38
2022-09-20T06:32:06.297Z,74.78
2022-09-20T06:33:06.504Z,74.89
2022-09-20T06:34:07.467Z,74.84
2022-09-20T06:35:07.368Z,74.48
2022-09-20T06:36:06.481Z,74.86
2022-09-20T06:37:08.520Z,74.24
2022-09-20T06:38:06.458Z,74.42
2022-09-20T06:39:07.145Z,74.50
2022-09-20T06:40:06.183Z,74.58
2022-09-20T06:41:06.105Z,74.58
2022-09-20T06:42:06.245Z,74.70
2022-09-20T06:43:06.085Z,74.80
2022-09-20T06:44:06.616Z,75.27
2022-09-20T06:45:06.244Z,75.52
2022-09-20T06:46:05.808Z,74.91
2022-09-20T06:47:05.956Z,75.46
2022-09-20T06:48:06.050Z,75.05
2022-09-20T06:49:06.204Z,74.87
2022-09-20T06:50:06.133Z,74.50
2022-09-20T06:51:27.143Z,74.20
2022-09-20T06:52:06.040Z,74.79
2022-09-20T06:53:06.436Z,75.00
2022-09-20T06:54:05.950Z,75.82
2022-09-20T06:55:06.379Z,74.54
2022-09-20T06:56:05.745Z,74.87
2022-09-20T06:57:06.319Z,74.61
2022-09-20T06:58:05.644Z,74.61
2022-09-20T06:59:05.784Z,74.28
2022-09-20T07:00:05.518Z,74.24
2022-09-20T07:01:05.927Z,74.30
2022-09-20T07:02:05.780Z,74.35
2022-09-20T07:03:05.799Z,74.34
2022-09-20T07:04:06.308Z,74.26
2022-09-20T07:05:06.101Z,73.99
2022-09-20T07:06:05.734Z,74.13
2022-09-20T07:07:09.437Z,74.53
2022-09-20T07:08:05.855Z,74.33
2022-09-20T07:09:05.780Z,73.96
2022-09-20T07:10:05.912Z,73.84
2022-09-20T07:11:07.749Z,73.63
2022-09-20T07:12:05.539Z,73.84
2022-09-20T07:13:05.786Z,74.45
2022-09-20T07:14:05.517Z,74.50
2022-09-20T07:15:05.703Z,73.81
2022-09-20T07:16:05.772Z,73.92
2022-09-20T07:17:11.066Z,73.72
2022-09-20T07:18:05.571Z,74.07
2022-09-20T07:19:05.574Z,73.86
2022-09-20T07:20:05.450Z,73.82
2022-09-20T07:21:05.892Z,74.25
2022-09-20T07:22:06.025Z,74.20
2022-09-20T07:23:06.910Z,73.75
2022-09-20T07:24:05.655Z,74.04
2022-09-20T07:25:05.420Z,74.80
2022-09-20T07:26:05.621Z,73.87
2022-09-20T07:27:05.418Z,74.02
2022-09-20T07:28:05.386Z,74.36
2022-09-20T07:29:06.109Z,73.65
2022-09-20T07:30:05.535Z,74.10
2022-09-20T07:31:05.588Z,74.16
2022-09-20T07:32:05.726Z,74.33
2022-09-20T07:33:05.527Z,74.34
2022-09-20T07:34:06.191Z,73.82
2022-09-20T07:35:06.410Z,73.94
2022-09-20T07:36:05.622Z,73.91
2022-09-20T07:37:05.530Z,73.55
2022-09-20T07:38:05.128Z,73.32
2022-09-20T07:39:05.125Z,73.91
2022-09-20T07:40:05.182Z,73.71
2022-09-20T07:41:05.125Z,73.38
2022-09-20T07:42:05.063Z,73.27
2022-09-20T07:43:05.392Z,73.00
2022-09-20T07:44:05.520Z,73.15
2022-09-20T07:45:05.108Z,72.55
2022-09-20T07:46:05.373Z,72.86
2022-09-20T07:47:05.531Z,73.41
2022-09-20T07:48:05.209Z,73.65
2022-09-20T07:49:05.026Z,72.65
2022-09-20T07:50:05.246Z,73.63
2022-09-20T07:51:08.542Z,70.99
2022-09-20T07:52:05.168Z,70.79
2022-09-20T07:53:05.097Z,69.96
2022-09-20T07:54:05.244Z,70.35
2022-09-20T07:55:04.977Z,71.27
2022-09-20T07:56:05.245Z,70.45
2022-09-20T07:57:04.890Z,70.81
2022-09-20T07:58:05.326Z,70.91
2022-09-20T07:59:05.003Z,70.95
2022-09-20T08:00:05.028Z,70.23
2022-09-20T08:01:06.725Z,70.16
2022-09-20T08:02:05.108Z,70.27
2022-09-20T08:03:04.870Z,70.80
2022-09-20T08:04:04.796Z,70.07
2022-09-20T08:05:04.987Z,70.55
2022-09-20T08:06:04.876Z,70.50
2022-09-20T08:07:06.470Z,70.13
2022-09-20T08:08:04.879Z,69.40
2022-09-20T08:09:08.960Z,70.04
2022-09-20T08:10:05.543Z,70.04
2022-09-20T08:11:04.956Z,69.79
2022-09-20T08:14:08.316Z,69.71
2022-09-20T08:15:08.464Z,69.91
2022-09-20T08:16:06.479Z,68.54
2022-09-20T08:17:04.792Z,68.33
2022-09-20T08:18:04.755Z,69.55
2022-09-20T08:19:06.101Z,69.88
2022-09-20T08:20:04.819Z,69.47
2022-09-20T08:21:04.742Z,69.96
2022-09-20T08:22:05.384Z,70.86
2022-09-20T08:23:22.625Z,72.27
2022-09-20T08:24:05.416Z,72.95
2022-09-20T08:25:04.934Z,72.99
2022-09-20T08:26:07.683Z,72.99
2022-09-20T08:27:04.774Z,74.32
2022-09-20T08:28:04.806Z,74.48
2022-09-20T08:29:05.466Z,75.66
2022-09-20T08:30:04.542Z,74.69
2022-09-20T08:31:06.111Z,74.92
2022-09-20T08:32:05.050Z,75.38
2022-09-20T08:33:04.364Z,73.93
2022-09-20T08:34:04.621Z,74.68
2022-09-20T08:35:05.748Z,74.54
2022-09-20T08:36:04.468Z,74.51
2022-09-20T08:37:05.533Z,74.90
2022-09-20T08:40:05.503Z,74.88
2022-09-20T08:41:04.683Z,74.59
2022-09-20T08:42:04.622Z,74.14
2022-09-20T08:43:05.459Z,74.09
2022-09-20T08:44:07.337Z,74.61
2022-09-20T08:45:04.579Z,74.09
2022-09-20T08:46:06.014Z,73.97
2022-09-20T08:47:04.574Z,75.60
2022-09-20T08:48:04.397Z,74.46
2022-09-20T08:49:04.517Z,74.86
2022-09-20T08:50:11.030Z,73.96
2022-09-20T08:51:05.716Z,74.24
2022-09-20T08:52:10.023Z,73.23
2022-09-20T08:53:05.095Z,72.14
2022-09-20T08:54:05.407Z,72.68
2022-09-20T08:55:07.692Z,72.93
2022-09-20T08:56:04.365Z,72.34
2022-09-20T08:57:04.312Z,72.31
2022-09-20T08:58:08.399Z,72.74
2022-09-20T08:59:04.191Z,73.05
2022-09-20T09:00:04.028Z,74.05
2022-09-20T09:01:04.276Z,72.49
2022-09-20T09:02:04.126Z,72.75
2022-09-20T09:03:04.478Z,73.31
2022-09-20T09:04:03.963Z,73.08
2022-09-20T09:05:04.452Z,72.62
2022-09-20T09:06:08.788Z,72.26
2022-09-20T09:07:05.349Z,72.75
2022-09-20T09:08:05.219Z,72.52
2022-09-20T09:09:04.196Z,72.62
2022-09-20T09:10:05.035Z,72.15
2022-09-20T09:11:04.113Z,71.90
2022-09-20T09:12:04.987Z,72.20
2022-09-20T09:13:04.018Z,72.20
2022-09-20T09:14:04.198Z,71.97
2022-09-20T09:15:04.027Z,71.78
2022-09-20T09:16:04.177Z,72.61
2022-09-20T09:17:03.965Z,71.92
2022-09-20T09:18:04.215Z,71.86
2022-09-20T09:19:04.215Z,71.87
2022-09-20T09:20:04.360Z,70.54
2022-09-20T09:21:04.111Z,70.64
2022-09-20T09:22:03.709Z,70.38
2022-09-20T09:23:03.724Z,70.93
2022-09-20T09:24:04.032Z,71.09
2022-09-20T09:25:03.873Z,71.67
2022-09-20T09:26:03.675Z,71.30
2022-09-20T09:27:03.634Z,70.47
2022-09-20T09:28:05.028Z,69.90
2022-09-20T09:29:03.660Z,70.77
2022-09-20T09:30:03.790Z,70.44
2022-09-20T09:31:03.986Z,69.34
2022-09-20T09:32:03.951Z,69.12
2022-09-20T09:33:03.717Z,69.09
2022-09-20T09:34:04.669Z,69.47
2022-09-20T09:35:03.692Z,70.54
2022-09-20T09:36:04.360Z,68.78
2022-09-20T09:37:04.762Z,69.05
2022-09-20T09:38:04.056Z,68.70
2022-09-20T09:39:04.094Z,68.60
2022-09-20T09:40:04.756Z,67.65
2022-09-20T09:41:05.419Z,66.98
2022-09-20T09:42:28.173Z,68.03
2022-09-20T09:43:06.117Z,68.13
2022-09-20T09:44:04.218Z,67.76
2022-09-20T09:45:03.801Z,66.52
2022-09-20T09:46:04.595Z,66.77
2022-09-20T09:47:05.665Z,66.36
2022-09-20T09:48:04.169Z,65.59
2022-09-20T09:49:03.674Z,65.65
2022-09-20T09:50:09.475Z,67.79
2022-09-20T09:51:05.015Z,66.01
2022-09-20T09:52:03.538Z,66.56
2022-09-20T09:53:03.350Z,67.31
2022-09-20T09:54:04.149Z,67.05
2022-09-20T09:55:05.624Z,64.99
2022-09-20T09:56:03.457Z,66.13
2022-09-20T09:57:03.656Z,65.18
2022-09-20T09:58:03.636Z,65.65
2022-09-20T09:59:03.403Z,64.62
2022-09-20T10:00:12.328Z,63.98
2022-09-20T10:01:04.517Z,63.28
2022-09-20T10:02:03.288Z,64.56
2022-09-20T10:03:03.085Z,64.93
2022-09-20T10:04:03.224Z,65.00
2022-09-20T10:05:03.430Z,64.02
2022-09-20T10:06:04.027Z,64.30
2022-09-20T10:07:03.899Z,65.10
2022-09-20T10:08:03.226Z,64.44
2022-09-20T10:09:03.885Z,64.96
2022-09-20T10:10:03.289Z,64.50
2022-09-20T10:11:03.545Z,64.59
2022-09-20T10:12:03.151Z,65.77
2022-09-20T10:13:03.452Z,66.40
2022-09-20T10:14:03.627Z,67.42
2022-09-20T10:15:03.628Z,67.23
2022-09-20T10:16:03.684Z,68.01
2022-09-20T10:17:03.486Z,68.43
2022-09-20T10:18:03.609Z,69.52
2022-09-20T10:19:03.338Z,68.56
2022-09-20T10:20:03.077Z,68.66
2022-09-20T10:21:03.200Z,68.94
2022-09-20T10:22:03.177Z,69.32
2022-09-20T10:23:34.455Z,70.24
2022-09-20T10:24:04.951Z,68.00
2022-09-20T10:25:03.039Z,68.54
2022-09-20T10:26:03.090Z,69.68
2022-09-20T10:27:03.028Z,70.41
2022-09-20T10:28:03.369Z,70.70
2022-09-20T10:29:02.693Z,70.35
2022-09-20T10:30:02.847Z,70.42
2022-09-20T10:31:02.917Z,70.71
2022-09-20T10:32:03.049Z,70.72
2022-09-20T10:33:02.817Z,70.93
2022-09-20T10:34:03.116Z,70.66
2022-09-20T10:35:02.650Z,71.46
2022-09-20T10:36:03.047Z,71.00
2022-09-20T10:37:02.784Z,69.04
2022-09-20T10:38:02.950Z,68.20
2022-09-20T10:39:02.814Z,67.83
2022-09-20T10:40:03.048Z,66.18
2022-09-20T10:41:02.887Z,67.93
2022-09-20T10:42:02.952Z,67.04
2022-09-20T10:43:02.671Z,66.86
2022-09-20T10:44:05.288Z,65.32
2022-09-20T10:45:02.589Z,65.66
2022-09-20T10:46:30.237Z,65.83
2022-09-20T10:47:03.792Z,65.98
2022-09-20T10:48:02.461Z,66.40
2022-09-20T10:49:03.206Z,64.58
2022-09-20T10:50:02.641Z,63.67
2022-09-20T10:51:03.582Z,63.27
2022-09-20T10:52:03.065Z,63.74
2022-09-20T10:53:02.667Z,63.69
2022-09-20T10:54:03.075Z,63.71
2022-09-20T10:55:02.841Z,63.20
2022-09-20T10:56:02.533Z,63.87
2022-09-20T10:57:02.629Z,62.43
2022-09-20T10:58:02.656Z,62.72
2022-09-20T10:59:02.457Z,62.88
2022-09-20T11:00:02.811Z,63.08
2022-09-20T11:01:02.731Z,65.19
2022-09-20T11:02:02.694Z,65.93
2022-09-20T11:03:02.915Z,65.63
2022-09-20T11:04:02.755Z,64.97
2022-09-20T11:05:02.485Z,65.41
2022-09-20T11:06:02.563Z,64.46
2022-09-20T11:07:03.026Z,63.14
2022-09-20T11:08:02.365Z,63.41
2022-09-20T11:09:03.079Z,63.05
2022-09-20T11:10:02.319Z,61.81
2022-09-20T11:11:03.196Z,62.00
2022-09-20T11:12:02.320Z,61.14
2022-09-20T11:13:02.526Z,60.76
2022-09-20T11:14:02.471Z,61.13
2022-09-20T11:15:02.832Z,61.37
2022-09-20T11:16:02.728Z,62.26
2022-09-20T11:17:02.665Z,63.17
2022-09-20T11:18:02.288Z,61.60
2022-09-20T11:19:02.041Z,62.19
2022-09-20T11:20:06.890Z,61.79
2022-09-20T11:21:03.031Z,62.05
2022-09-20T11:22:02.206Z,62.28
2022-09-20T11:23:02.655Z,63.46
2022-09-20T11:24:02.208Z,63.41
2022-09-20T11:25:02.242Z,61.41
2022-09-20T11:26:02.449Z,61.52
2022-09-20T11:27:02.134Z,59.93
2022-09-20T11:28:02.162Z,59.80
2022-09-20T11:29:02.258Z,59.37
2022-09-20T11:30:02.662Z,60.07
2022-09-20T11:31:02.374Z,59.70
2022-09-20T11:32:02.276Z,60.55
2022-09-20T11:33:02.198Z,61.29
2022-09-20T11:34:02.332Z,61.95
2022-09-20T11:35:02.213Z,62.41
2022-09-20T11:36:02.405Z,63.11
2022-09-20T11:37:02.193Z,65.09
2022-09-20T11:38:02.731Z,65.08
2022-09-20T11:39:02.059Z,65.42
2022-09-20T11:40:04.186Z,65.79
2022-09-20T11:41:01.966Z,66.33
2022-09-20T11:42:02.186Z,66.72
2022-09-20T11:43:02.370Z,69.18
2022-09-20T11:44:02.163Z,71.71
2022-09-20T11:45:01.734Z,68.88
2022-09-20T11:46:02.301Z,70.01
2022-09-20T11:47:02.533Z,70.59
2022-09-20T11:48:02.548Z,70.97
2022-09-20T11:49:02.173Z,71.15
2022-09-20T11:50:02.024Z,71.37
2022-09-20T11:51:01.908Z,71.77
2022-09-20T11:52:01.893Z,72.43
2022-09-20T11:53:01.677Z,72.40
2022-09-20T11:54:02.904Z,73.38
2022-09-20T11:55:01.995Z,74.25
2022-09-20T11:56:01.946Z,75.66
2022-09-20T11:57:01.737Z,74.98
2022-09-20T11:58:03.032Z,73.93
2022-09-20T11:59:01.867Z,74.44
2022-09-20T12:00:03.057Z,76.14
2022-09-20T12:01:01.596Z,74.82
2022-09-20T12:02:01.845Z,75.30
2022-09-20T12:03:02.251Z,75.84
2022-09-20T12:04:27.726Z,74.60
2022-09-20T12:05:03.655Z,74.77
2022-09-20T12:06:03.193Z,75.33
2022-09-20T12:07:07.649Z,75.60
2022-09-20T12:08:02.416Z,74.80
2022-09-20T12:09:01.912Z,75.65
2022-09-20T12:10:01.764Z,74.34
2022-09-20T12:11:01.746Z,74.96
2022-09-20T12:12:01.565Z,74.50
2022-09-20T12:13:02.850Z,75.15
2022-09-20T12:14:01.620Z,74.67
2022-09-20T12:15:01.514Z,73.75
2022-09-20T12:16:02.133Z,73.67
2022-09-20T12:17:01.988Z,75.23
2022-09-20T12:18:06.757Z,74.15
2022-09-20T12:19:02.592Z,74.12
2022-09-20T12:20:01.729Z,74.74
2022-09-20T12:21:02.383Z,73.71
2022-09-20T12:22:01.979Z,75.05
2022-09-20T12:23:01.475Z,73.82
2022-09-20T12:24:01.653Z,73.56
2022-09-20T12:25:01.162Z,73.81
2022-09-20T12:26:01.517Z,74.10
2022-09-20T12:27:01.231Z,74.15
2022-09-20T12:28:01.680Z,75.15
2022-09-20T12:29:01.137Z,76.44
2022-09-20T12:30:01.357Z,76.18
2022-09-20T12:31:01.230Z,74.60
2022-09-20T12:32:01.441Z,75.67
2022-09-20T12:33:01.119Z,77.32
2022-09-20T12:34:01.871Z,75.30
2022-09-20T12:35:01.218Z,75.70
2022-09-20T12:36:02.274Z,77.43
2022-09-20T12:37:01.045Z,77.87
2022-09-20T12:38:03.467Z,79.77
2022-09-20T12:39:01.309Z,78.71
2022-09-20T12:40:01.585Z,77.36
2022-09-20T12:41:02.012Z,77.42
2022-09-20T12:42:01.346Z,77.97
2022-09-20T12:43:01.817Z,77.94
2022-09-20T12:44:03.328Z,78.16
2022-09-20T12:45:01.790Z,76.79
2022-09-20T12:46:06.364Z,76.57
2022-09-20T12:47:02.067Z,76.38
2022-09-20T12:48:01.069Z,76.82
2022-09-20T12:49:01.223Z,77.69
2022-09-20T12:50:01.106Z,77.58
2022-09-20T12:51:00.970Z,76.54
2022-09-20T12:52:01.253Z,76.26
2022-09-20T12:53:01.107Z,76.34
2022-09-20T12:54:00.798Z,76.06
2022-09-20T12:55:04.648Z,75.94
2022-09-20T12:56:02.199Z,76.06
2022-09-20T12:57:01.608Z,75.66